모두
Gayndah Hospital Airport YXGI 기상
There is no TAF data available at YXGI or any nearby airports.
There is no METAR data available at YXGI. Showing METAR data for YGAY (2 mi 동북).
최근 GAH METAR 이력(YXGI에 대한 데이터 없음)
| Date | Time (AEST) | Flight Rules | Wind Dir. | Speed | Type | Height AGL (ft) | Visibility | Temp (°C) | Temp (°F) | Dew Point (°C) | Dew Point (°F) | Rel. Humid. | Pressure | Density Altitude | Remarks |
|---|---|---|---|---|---|---|---|---|---|---|---|---|---|---|---|
| 05-5월 | 16:00 | n/a | 280° | 4 kt | Missing | 26° | 78° | 18° | 64° | 61% | 1014 mb | 1,666 ft | |||
| 05-5월 | 15:00 | n/a | 260° | 4 kt | Missing | 27° | 80° | 18° | 64° | 58% | 1014 mb | 1,786 ft | |||
| 05-5월 | 14:00 | n/a | 240° | 3 kt | Missing | 28° | 82° | 17° | 62° | 51% | 1014 mb | 1,906 ft | |||
| 05-5월 | 13:00 | n/a | 60° | 3 kt | Missing | 27° | 80° | 17° | 62° | 54% | 1015 mb | 1,756 ft | |||
| 05-5월 | 12:00 | n/a | 280° | 3 kt | Missing | 26° | 78° | 18° | 64° | 61% | 1016 mb | 1,607 ft | |||
| 05-5월 | 11:00 | n/a | 200° | 3 kt | Missing | 25° | 77° | 18° | 64° | 65% | 1016 mb | 1,487 ft | |||
| 05-5월 | 10:00 | n/a | 230° | 3 kt | Missing | 24° | 75° | 19° | 66° | 74% | 1017 mb | 1,337 ft | |||
| 05-5월 | 09:00 | n/a | 270° | 3 kt | Missing | 21° | 69° | 18° | 64° | 83% | 1018 mb | 947 ft | |||
| 05-5월 | 08:00 | n/a | Calm | Missing | 17° | 62° | 17° | 62° | 100% | 1018 mb | 467 ft | ||||
| 05-5월 | 07:00 | n/a | Calm | Missing | 15° | 59° | 14° | 57° | 94% | 1017 mb | 257 ft | ||||
| 05-5월 | 06:00 | n/a | 240° | 1 kt | Missing | 14° | 57° | 14° | 57° | 100% | 1017 mb | 137 ft | |||
| 05-5월 | 05:00 | n/a | 230° | 2 kt | Missing | 14° | 57° | 14° | 57° | 100% | 1016 mb | 167 ft | |||
| 05-5월 | 04:00 | n/a | 210° | 1 kt | Missing | 14° | 57° | 14° | 57° | 100% | 1016 mb | 167 ft | |||
| 05-5월 | 03:00 | n/a | Calm | Missing | 14° | 57° | 14° | 57° | 100% | 1016 mb | 167 ft | ||||
| 05-5월 | 02:00 | n/a | Calm | Missing | 15° | 59° | 15° | 59° | 100% | 1016 mb | 287 ft | ||||
| 05-5월 | 01:00 | n/a | Calm | Missing | 15° | 59° | 15° | 59° | 100% | 1017 mb | 257 ft | ||||
| 05-5월 | 00:00 | n/a | 280° | 2 kt | Missing | 15° | 59° | 15° | 59° | 100% | 1017 mb | 257 ft | |||
| 04-5월 | 23:00 | n/a | 10° | 2 kt | Missing | 16° | 60° | 15° | 59° | 94% | 1017 mb | 377 ft | |||
| 04-5월 | 22:00 | n/a | Calm | Missing | 17° | 62° | 16° | 60° | 94% | 1017 mb | 497 ft | ||||
| 04-5월 | 21:00 | n/a | Calm | Missing | 18° | 64° | 16° | 60° | 88% | 1017 mb | 617 ft | ||||
| 04-5월 | 20:00 | n/a | Calm | Missing | 19° | 66° | 16° | 60° | 83% | 1017 mb | 737 ft | ||||
| 04-5월 | 19:00 | n/a | Calm | Missing | 20° | 68° | 16° | 60° | 78% | 1016 mb | 887 ft | ||||
| 04-5월 | 18:00 | n/a | 110° | 2 kt | Missing | 23° | 73° | 16° | 60° | 65% | 1015 mb | 1,276 ft | |||
| 04-5월 | 17:00 | n/a | 120° | 3 kt | Missing | 26° | 78° | 17° | 62° | 58% | 1015 mb | 1,636 ft |
로그인
| 귀하의 브라우저는 지원되지 않습니다.. 브라우저를 업그레이드하세요 |
